Time;durP1;ratioP1;P1;durP2;ratioP2;P2;SDS_P1;SDS_P2;PMS_P1;PMS_P2;Temp;Humidity;BMP_temperature;BMP_pressure;BME280_temperature;BME280_humidity;BME280_pressure;Samples;Min_cycle;Max_cycle;Signal;HPM_P1;HPM_P2
2023/10/23 00:02:17;;;;;;;1.55;1.10;;;18.30;51.70;;;;;;5110741;27;45272;-77
2023/10/23 00:04:44;;;;;;;1.48;0.88;;;18.30;51.70;;;;;;5110914;27;45289;-77
2023/10/23 00:07:11;;;;;;;3.55;1.10;;;18.30;51.80;;;;;;5110289;27;45209;-77
2023/10/23 00:09:37;;;;;;;1.90;0.77;;;18.30;51.80;;;;;;5110056;27;45325;-76
2023/10/23 00:12:07;;;;;;;0.82;0.70;;;18.20;51.70;;;;;;5109733;27;45170;-77
2023/10/23 00:14:35;;;;;;;1.00;0.85;;;18.20;51.80;;;;;;5110350;27;45453;-77
2023/10/23 00:17:02;;;;;;;1.40;0.88;;;18.20;51.70;;;;;;5109711;27;46286;-77
2023/10/23 00:19:29;;;;;;;3.72;0.85;;;18.20;51.70;;;;;;5110066;27;45311;-77
2023/10/23 00:21:56;;;;;;;1.88;1.00;;;18.20;51.80;;;;;;5126207;27;45255;-76
2023/10/23 00:24:22;;;;;;;2.67;0.77;;;18.20;51.80;;;;;;5131162;27;45172;-77
2023/10/23 00:26:50;;;;;;;2.25;0.88;;;18.10;51.70;;;;;;5131515;27;46926;-77
2023/10/23 00:29:17;;;;;;;1.63;0.93;;;18.10;51.70;;;;;;5131181;27;45258;-77
2023/10/23 00:31:45;;;;;;;1.85;0.98;;;18.10;51.80;;;;;;5130949;27;45339;-77
2023/10/23 00:34:12;;;;;;;0.70;0.70;;;18.10;51.80;;;;;;5131468;27;45394;-76
2023/10/23 00:36:38;;;;;;;2.10;0.90;;;18.10;51.80;;;;;;5131149;27;45470;-77
2023/10/23 00:39:05;;;;;;;1.48;0.82;;;18.10;51.80;;;;;;5130965;27;45242;-76
2023/10/23 00:41:32;;;;;;;2.08;0.88;;;18.10;51.80;;;;;;5129914;27;45361;-77
2023/10/23 00:44:00;;;;;;;2.78;1.00;;;18.00;51.70;;;;;;5131034;27;45303;-77
2023/10/23 00:46:28;;;;;;;0.98;0.80;;;18.00;51.70;;;;;;5130695;27;45426;-77
2023/10/23 00:48:56;;;;;;;0.80;0.80;;;18.00;51.70;;;;;;5130747;27;45166;-77
2023/10/23 00:51:23;;;;;;;1.80;0.98;;;18.00;51.80;;;;;;5130435;27;45317;-76
2023/10/23 00:53:50;;;;;;;1.58;0.82;;;18.00;51.80;;;;;;5130853;27;45516;-77
2023/10/23 00:56:18;;;;;;;1.05;0.57;;;18.00;51.80;;;;;;5130367;27;45286;-76
2023/10/23 00:58:45;;;;;;;1.88;0.90;;;17.90;51.80;;;;;;5130416;27;45200;-77
2023/10/23 01:01:12;;;;;;;0.98;0.90;;;17.90;51.80;;;;;;5130307;27;45337;-77
2023/10/23 01:03:39;;;;;;;1.63;0.90;;;17.90;51.80;;;;;;5129195;27;45387;-77
2023/10/23 01:06:07;;;;;;;0.88;0.63;;;17.90;51.80;;;;;;5129654;27;46428;-77
2023/10/23 01:08:34;;;;;;;1.08;0.90;;;17.90;51.80;;;;;;5129476;27;45291;-77
2023/10/23 01:11:01;;;;;;;0.85;0.85;;;17.80;51.80;;;;;;5129521;27;45219;-77
2023/10/23 01:13:28;;;;;;;0.80;0.80;;;17.80;51.80;;;;;;5129713;27;45527;-77
2023/10/23 01:15:55;;;;;;;1.80;0.85;;;17.80;51.80;;;;;;5129350;27;45479;-76
2023/10/23 01:18:22;;;;;;;1.42;0.90;;;17.80;51.80;;;;;;5129719;27;45343;-77
2023/10/23 01:20:48;;;;;;;1.00;0.73;;;17.80;51.80;;;;;;5123468;27;45259;-77
2023/10/23 01:23:17;;;;;;;0.98;0.77;;;17.80;51.80;;;;;;5108720;27;45227;-77
2023/10/23 01:25:45;;;;;;;1.52;0.90;;;17.80;51.80;;;;;;5108567;27;46363;-77
2023/10/23 01:28:12;;;;;;;1.92;0.77;;;17.80;51.90;;;;;;5108420;27;45390;-77
2023/10/23 01:30:40;;;;;;;1.50;0.70;;;17.80;51.90;;;;;;5108433;27;45211;-77
2023/10/23 01:33:07;;;;;;;0.73;0.70;;;17.70;51.90;;;;;;5108436;27;45454;-77
2023/10/23 01:35:34;;;;;;;0.68;0.60;;;17.70;51.90;;;;;;5113255;27;46736;-77
2023/10/23 01:38:00;;;;;;;0.70;0.70;;;17.70;51.90;;;;;;5131984;27;45286;-77
2023/10/23 01:40:27;;;;;;;1.73;1.20;;;17.60;51.90;;;;;;5132227;27;45320;-77
2023/10/23 01:42:55;;;;;;;1.38;0.65;;;17.60;51.90;;;;;;5132393;27;45385;-75
2023/10/23 01:45:22;;;;;;;0.73;0.73;;;17.60;51.90;;;;;;5131194;27;46484;-77
2023/10/23 01:47:49;;;;;;;0.85;0.85;;;17.60;51.90;;;;;;5131591;27;45308;-77
2023/10/23 01:50:16;;;;;;;0.80;0.80;;;17.60;51.90;;;;;;5132211;27;45251;-77
2023/10/23 01:52:44;;;;;;;0.70;0.70;;;17.60;51.90;;;;;;5132910;27;45413;-77
2023/10/23 01:55:11;;;;;;;1.63;0.73;;;17.60;52.60;;;;;;5131755;27;46488;-77
2023/10/23 01:57:38;;;;;;;0.95;0.93;;;17.60;51.90;;;;;;5131705;27;45169;-77
2023/10/23 02:00:10;;;;;;;1.13;1.02;;;17.50;51.90;;;;;;5132067;27;45299;-77
2023/10/23 02:02:37;;;;;;;1.08;0.93;;;17.50;51.90;;;;;;5132068;27;45335;-77
2023/10/23 02:05:04;;;;;;;0.60;0.60;;;17.50;51.90;;;;;;5131526;27;45234;-77
2023/10/23 02:07:31;;;;;;;1.10;1.00;;;17.50;52.00;;;;;;5131660;27;45232;-77
2023/10/23 02:09:57;;;;;;;1.15;0.70;;;17.50;52.00;;;;;;5131541;27;45401;-77
2023/10/23 02:12:25;;;;;;;1.27;0.77;;;17.50;52.00;;;;;;5132223;27;45292;-77
2023/10/23 02:14:52;;;;;;;1.02;0.80;;;17.50;52.00;;;;;;5131330;27;45500;-76
2023/10/23 02:17:21;;;;;;;0.80;0.80;;;17.40;51.90;;;;;;5131267;27;45328;-77
2023/10/23 02:19:47;;;;;;;0.95;0.70;;;17.40;51.90;;;;;;5131326;27;45221;-76
2023/10/23 02:22:14;;;;;;;1.13;0.88;;;17.40;52.00;;;;;;5131489;27;45407;-77
2023/10/23 02:24:41;;;;;;;0.95;0.70;;;17.40;52.00;;;;;;5130831;27;45238;-77
2023/10/23 02:27:08;;;;;;;0.60;0.60;;;17.40;52.00;;;;;;5130839;27;45215;-77
2023/10/23 02:29:35;;;;;;;1.50;0.88;;;17.40;52.30;;;;;;5130480;27;45346;-76
2023/10/23 02:32:02;;;;;;;0.70;0.70;;;17.40;52.00;;;;;;5130237;27;45404;-77
2023/10/23 02:34:30;;;;;;;1.55;0.90;;;17.30;52.00;;;;;;5130194;27;48697;-77
2023/10/23 02:36:58;;;;;;;2.08;0.85;;;17.30;52.00;;;;;;5130548;27;45266;-77
2023/10/23 02:39:25;;;;;;;1.23;0.70;;;17.30;51.90;;;;;;5130402;27;45191;-76
2023/10/23 02:41:51;;;;;;;1.50;0.70;;;17.30;52.00;;;;;;5130794;27;45282;-77
2023/10/23 02:44:18;;;;;;;1.48;0.90;;;17.30;52.00;;;;;;5130286;27;45483;-77
2023/10/23 02:46:45;;;;;;;0.55;0.55;;;17.20;51.90;;;;;;5129873;27;45233;-77
2023/10/23 02:49:12;;;;;;;0.57;0.57;;;17.20;51.90;;;;;;5130871;27;45202;-77
2023/10/23 02:51:40;;;;;;;1.92;0.90;;;17.20;52.00;;;;;;5130828;27;45189;-77
2023/10/23 02:54:07;;;;;;;1.98;0.93;;;17.20;51.90;;;;;;5130820;27;45241;-77
2023/10/23 02:56:34;;;;;;;0.88;0.70;;;17.20;51.90;;;;;;5130995;27;45298;-77
2023/10/23 02:59:01;;;;;;;1.77;0.93;;;17.20;52.00;;;;;;5115431;27;45135;-77
2023/10/23 03:01:28;;;;;;;1.52;1.00;;;17.20;51.90;;;;;;5110399;27;45184;-75
2023/10/23 03:03:54;;;;;;;1.33;0.85;;;17.10;52.00;;;;;;5109933;27;47028;-77
2023/10/23 03:06:21;;;;;;;1.00;0.90;;;17.10;51.90;;;;;;5110095;27;45302;-77
2023/10/23 03:08:49;;;;;;;1.67;1.13;;;17.20;52.00;;;;;;5110302;27;45360;-78
2023/10/23 03:11:16;;;;;;;1.95;0.98;;;17.10;52.00;;;;;;5110630;27;45319;-77
2023/10/23 03:13:43;;;;;;;1.58;0.82;;;17.10;52.00;;;;;;5109208;27;45421;-78
2023/10/23 03:16:10;;;;;;;1.10;1.00;;;17.10;52.00;;;;;;5109704;27;45574;-77
2023/10/23 03:18:37;;;;;;;1.00;0.90;;;17.10;52.00;;;;;;5109774;27;45317;-77
2023/10/23 03:21:03;;;;;;;2.10;1.08;;;17.10;52.00;;;;;;5109800;27;45472;-77
2023/10/23 03:23:31;;;;;;;1.17;0.82;;;17.00;51.90;;;;;;5109442;27;46397;-77
2023/10/23 03:26:00;;;;;;;1.10;0.90;;;17.00;51.90;;;;;;5109347;27;45276;-76
2023/10/23 03:28:26;;;;;;;1.90;1.00;;;17.00;51.90;;;;;;5109418;27;45321;-76
2023/10/23 03:30:53;;;;;;;1.05;0.95;;;17.00;52.00;;;;;;5109287;27;45466;-77
2023/10/23 03:33:20;;;;;;;2.05;0.80;;;17.00;52.00;;;;;;5109042;27;45430;-77
2023/10/23 03:35:47;;;;;;;1.00;0.90;;;16.90;52.00;;;;;;5126503;27;45400;-77
2023/10/23 03:38:14;;;;;;;1.08;0.98;;;16.90;52.00;;;;;;5130343;27;45183;-77
2023/10/23 03:40:41;;;;;;;1.90;1.10;;;16.90;52.00;;;;;;5130432;27;45489;-77
2023/10/23 03:43:09;;;;;;;2.00;1.13;;;16.90;52.00;;;;;;5129602;27;45796;-77
2023/10/23 03:45:37;;;;;;;1.40;1.10;;;16.90;52.00;;;;;;5129761;27;45299;-77
2023/10/23 03:48:03;;;;;;;2.60;1.05;;;16.90;52.00;;;;;;5129606;27;45176;-77
2023/10/23 03:50:31;;;;;;;1.92;1.20;;;16.90;52.00;;;;;;5129831;27;45355;-77
2023/10/23 03:52:58;;;;;;;1.20;0.70;;;16.80;52.10;;;;;;5129592;27;48384;-77
2023/10/23 03:55:24;;;;;;;1.02;1.00;;;16.90;52.10;;;;;;5129503;27;45369;-76
2023/10/23 03:57:51;;;;;;;1.27;1.00;;;16.90;52.10;;;;;;5128205;27;45297;-77
2023/10/23 04:00:19;;;;;;;1.40;0.88;;;16.80;52.10;;;;;;5130108;27;45340;-77
2023/10/23 04:02:46;;;;;;;1.42;0.80;;;16.80;52.60;;;;;;5129262;27;45667;-77
2023/10/23 04:05:13;;;;;;;1.60;1.30;;;16.80;52.10;;;;;;5129149;27;45382;-77
2023/10/23 04:07:40;;;;;;;1.30;0.95;;;16.80;52.10;;;;;;5128944;27;45397;-77
2023/10/23 04:10:08;;;;;;;1.67;0.90;;;16.80;52.20;;;;;;5128958;27;45296;-77
2023/10/23 04:12:35;;;;;;;0.82;0.80;;;16.80;52.20;;;;;;5128405;27;45289;-77
2023/10/23 04:15:03;;;;;;;1.73;0.90;;;16.80;52.10;;;;;;5128705;27;45197;-77
2023/10/23 04:17:31;;;;;;;1.10;1.00;;;16.80;52.20;;;;;;5128655;27;45281;-77
2023/10/23 04:19:58;;;;;;;1.45;0.77;;;16.70;52.10;;;;;;5129412;27;45337;-77
2023/10/23 04:22:25;;;;;;;1.30;0.98;;;16.70;52.10;;;;;;5128628;27;47266;-77
2023/10/23 04:24:54;;;;;;;1.55;0.98;;;16.70;52.80;;;;;;5128742;27;45142;-77
2023/10/23 04:27:21;;;;;;;1.20;0.70;;;16.70;52.20;;;;;;5128681;27;45307;-77
2023/10/23 04:29:48;;;;;;;1.70;0.75;;;16.70;52.10;;;;;;5128726;27;45343;-77
2023/10/23 04:32:15;;;;;;;1.20;1.05;;;16.70;52.20;;;;;;5127934;27;46395;-77
2023/10/23 04:34:43;;;;;;;1.60;0.90;;;16.70;52.20;;;;;;5120265;27;45425;-77
2023/10/23 04:37:10;;;;;;;1.58;0.90;;;16.70;52.20;;;;;;5124153;27;45386;-77
2023/10/23 04:39:37;;;;;;;1.92;1.00;;;16.70;52.10;;;;;;5128642;27;45333;-77
2023/10/23 04:42:04;;;;;;;1.40;0.80;;;16.70;52.10;;;;;;5127496;27;46395;-77
2023/10/23 04:44:31;;;;;;;1.40;1.08;;;16.70;52.20;;;;;;5127926;27;45295;-78
2023/10/23 04:46:58;;;;;;;1.15;0.90;;;16.60;52.10;;;;;;5129074;27;45401;-77
2023/10/23 04:49:25;;;;;;;1.73;0.90;;;16.70;52.20;;;;;;5129215;27;45281;-77
2023/10/23 04:51:53;;;;;;;0.70;0.70;;;16.60;52.30;;;;;;5129015;27;45740;-77
2023/10/23 04:54:20;;;;;;;1.42;0.80;;;16.60;52.30;;;;;;5128981;27;45210;-77
2023/10/23 04:56:47;;;;;;;0.73;0.73;;;16.60;52.30;;;;;;5129190;27;45267;-77
2023/10/23 04:59:14;;;;;;;1.15;0.80;;;16.60;52.30;;;;;;5129547;27;45351;-77
2023/10/23 05:01:41;;;;;;;1.10;0.90;;;16.60;52.30;;;;;;5128885;27;46423;-76
2023/10/23 05:04:08;;;;;;;1.92;0.88;;;16.60;52.30;;;;;;5128376;27;45279;-78
2023/10/23 05:06:34;;;;;;;0.80;0.80;;;16.60;52.30;;;;;;5128313;27;45251;-77
2023/10/23 05:09:04;;;;;;;0.88;0.70;;;16.60;52.30;;;;;;5130747;27;45417;-77
2023/10/23 05:11:31;;;;;;;2.22;0.80;;;16.60;52.30;;;;;;5132314;27;45423;-77
2023/10/23 05:13:58;;;;;;;0.80;0.80;;;16.50;52.30;;;;;;5133899;27;45297;-77
2023/10/23 05:16:25;;;;;;;0.90;0.85;;;16.60;52.30;;;;;;5132741;27;45339;-77
2023/10/23 05:18:52;;;;;;;1.40;0.80;;;16.60;52.40;;;;;;5132755;27;45166;-77
2023/10/23 05:21:19;;;;;;;0.65;0.60;;;16.60;52.40;;;;;;5132183;27;46265;-76
2023/10/23 05:23:46;;;;;;;1.08;1.00;;;16.50;52.40;;;;;;5132001;27;44683;-77
2023/10/23 05:26:14;;;;;;;1.48;0.93;;;16.50;52.30;;;;;;5132353;27;45329;-77
2023/10/23 05:28:41;;;;;;;1.02;0.75;;;16.60;52.40;;;;;;5132447;27;45212;-77
2023/10/23 05:31:09;;;;;;;1.13;1.00;;;16.50;52.30;;;;;;5131031;27;47403;-77
2023/10/23 05:33:36;;;;;;;1.98;1.02;;;16.50;52.40;;;;;;5131556;27;45295;-77
2023/10/23 05:36:04;;;;;;;1.42;0.80;;;16.50;52.40;;;;;;5132354;27;45341;-77
2023/10/23 05:38:31;;;;;;;1.60;0.63;;;16.50;52.90;;;;;;5132099;27;44879;-77
2023/10/23 05:40:58;;;;;;;0.60;0.60;;;16.50;52.40;;;;;;5131302;27;45454;-77
2023/10/23 05:43:27;;;;;;;1.90;0.77;;;16.50;52.40;;;;;;5131774;27;45374;-77
2023/10/23 05:45:54;;;;;;;1.48;0.88;;;16.50;52.40;;;;;;5131486;27;45244;-77
2023/10/23 05:48:21;;;;;;;1.27;0.90;;;16.50;52.40;;;;;;5131729;27;45501;-76
2023/10/23 05:50:57;;;;;;;0.82;0.70;;;16.50;53.00;;;;;;5131053;27;46684;-76
2023/10/23 05:53:24;;;;;;;1.63;1.08;;;16.50;52.50;;;;;;5131379;27;45446;-77
2023/10/23 05:55:51;;;;;;;1.17;0.63;;;16.50;52.40;;;;;;5131021;27;45298;-77
2023/10/23 05:58:18;;;;;;;1.10;1.00;;;16.50;52.50;;;;;;5131241;27;45265;-77
2023/10/23 06:00:46;;;;;;;1.42;0.80;;;16.50;52.50;;;;;;5130307;27;46973;-77
2023/10/23 06:03:13;;;;;;;1.70;0.82;;;16.50;52.50;;;;;;5130724;27;45216;-77
2023/10/23 06:05:41;;;;;;;1.30;0.90;;;16.50;52.50;;;;;;5130943;27;45447;-77
2023/10/23 06:08:08;;;;;;;1.63;1.00;;;16.50;52.50;;;;;;5131148;27;45228;-76
2023/10/23 06:10:41;;;;;;;2.25;0.90;;;16.50;52.50;;;;;;5130822;27;45304;-76
2023/10/23 06:13:07;;;;;;;1.02;0.93;;;16.40;53.00;;;;;;5110106;27;45303;-75
2023/10/23 06:15:34;;;;;;;1.02;0.80;;;16.40;52.50;;;;;;5109492;27;45185;-77
2023/10/23 06:18:02;;;;;;;1.83;1.05;;;16.40;52.50;;;;;;5110247;27;45185;-77
2023/10/23 06:20:29;;;;;;;1.08;0.70;;;16.40;52.50;;;;;;5108820;27;45450;-76
2023/10/23 06:22:56;;;;;;;0.98;0.82;;;16.40;52.50;;;;;;5109640;27;45414;-77
2023/10/23 06:25:23;;;;;;;1.10;0.88;;;16.50;52.50;;;;;;5109894;27;45290;-76
2023/10/23 06:27:50;;;;;;;2.58;0.80;;;16.50;52.60;;;;;;5109919;27;45317;-77
2023/10/23 06:30:17;;;;;;;1.90;1.10;;;16.40;52.50;;;;;;5109449;27;46385;-77
2023/10/23 06:32:43;;;;;;;2.35;0.90;;;16.50;52.60;;;;;;5109591;27;45400;-77
2023/10/23 06:35:11;;;;;;;2.13;1.10;;;16.40;52.60;;;;;;5109555;27;45325;-77
2023/10/23 06:37:38;;;;;;;1.42;0.82;;;16.40;52.50;;;;;;5109972;27;45338;-77
2023/10/23 06:40:06;;;;;;;1.00;0.90;;;16.40;52.60;;;;;;5109247;27;46662;-76
2023/10/23 06:42:33;;;;;;;0.80;0.80;;;16.40;52.60;;;;;;5109700;27;45158;-76
2023/10/23 06:45:00;;;;;;;0.90;0.90;;;16.40;52.60;;;;;;5124074;27;45525;-75
2023/10/23 06:47:27;;;;;;;1.13;0.98;;;16.40;52.60;;;;;;5124363;27;45381;-75
2023/10/23 06:49:54;;;;;;;1.83;1.10;;;16.40;52.60;;;;;;5116732;27;46372;-75
2023/10/23 06:52:22;;;;;;;1.00;0.95;;;16.40;52.60;;;;;;5109303;27;45304;-78
2023/10/23 06:54:49;;;;;;;1.13;1.00;;;16.40;52.60;;;;;;5110348;27;45308;-77
2023/10/23 06:57:16;;;;;;;1.83;0.77;;;16.40;52.60;;;;;;5109130;27;45412;-75
2023/10/23 06:59:42;;;;;;;3.15;0.90;;;16.40;52.60;;;;;;5110723;27;47569;-75
2023/10/23 07:02:10;;;;;;;4.22;1.20;;;16.40;53.20;;;;;;5127541;27;45303;-76
2023/10/23 07:04:37;;;;;;;4.05;1.45;;;16.40;53.60;;;;;;5128548;27;45135;-74
2023/10/23 07:07:04;;;;;;;2.15;1.75;;;16.40;53.90;;;;;;5128899;27;45521;-75
2023/10/23 07:09:33;;;;;;;2.78;1.73;;;16.40;54.50;;;;;;5125263;27;46740;-73
2023/10/23 07:11:59;;;;;;;2.22;1.58;;;16.30;54.50;;;;;;5120653;27;45441;-75
2023/10/23 07:14:26;;;;;;;3.25;1.80;;;16.30;54.60;;;;;;5127675;27;45461;-74
2023/10/23 07:16:53;;;;;;;2.60;1.60;;;16.30;54.60;;;;;;5125511;27;45230;-76
2023/10/23 07:19:20;;;;;;;1.35;1.25;;;16.30;54.60;;;;;;5124946;27;47589;-73
2023/10/23 07:21:47;;;;;;;1.23;1.13;;;16.30;54.50;;;;;;5128496;27;45309;-76
2023/10/23 07:24:14;;;;;;;1.48;1.10;;;16.30;54.50;;;;;;5129885;27;45336;-77
2023/10/23 07:26:42;;;;;;;3.03;1.20;;;16.30;54.50;;;;;;5122116;27;45211;-76
2023/10/23 07:29:09;;;;;;;2.03;1.33;;;16.30;54.60;;;;;;5111435;27;46390;-76
2023/10/23 07:31:36;;;;;;;1.67;1.05;;;16.30;54.50;;;;;;5121161;27;45264;-77
2023/10/23 07:34:04;;;;;;;4.78;1.58;;;16.20;54.60;;;;;;5128617;27;45227;-78
2023/10/23 07:36:31;;;;;;;4.05;1.67;;;16.20;54.80;;;;;;5128409;27;45560;-75
2023/10/23 07:38:59;;;;;;;1.38;1.27;;;16.20;54.60;;;;;;5120383;27;46940;-74
2023/10/23 07:41:26;;;;;;;2.45;1.55;;;16.20;54.90;;;;;;5127575;27;45400;-75
2023/10/23 07:43:54;;;;;;;4.97;1.40;;;16.20;55.00;;;;;;5129713;27;45308;-77
2023/10/23 07:46:21;;;;;;;4.85;1.45;;;16.20;55.10;;;;;;5128875;27;45476;-77
2023/10/23 07:48:48;;;;;;;2.35;1.42;;;16.30;55.20;;;;;;5123839;27;45458;-76
2023/10/23 07:51:15;;;;;;;2.47;1.58;;;16.30;55.10;;;;;;5118810;27;45271;-76
2023/10/23 07:53:49;;;;;;;2.35;1.70;;;16.20;55.40;;;;;;5129312;27;45424;-77
2023/10/23 07:56:16;;;;;;;2.55;1.77;;;16.20;55.40;;;;;;5126430;27;45211;-77
2023/10/23 07:58:43;;;;;;;2.20;1.60;;;16.20;55.40;;;;;;5115066;27;46657;-72
2023/10/23 08:01:12;;;;;;;3.30;1.70;;;16.20;55.40;;;;;;5128212;27;45520;-73
2023/10/23 08:03:38;;;;;;;3.72;1.83;;;16.20;55.40;;;;;;5122909;27;45422;-70
2023/10/23 08:06:06;;;;;;;5.70;1.60;;;16.20;55.20;;;;;;5113210;27;45509;-72
2023/10/23 08:08:36;;;;;;;3.47;1.60;;;16.20;55.10;;;;;;5108140;27;46367;-71
2023/10/23 08:11:03;;;;;;;4.57;1.70;;;16.20;54.90;;;;;;5122926;27;45280;-72
2023/10/23 08:13:30;;;;;;;2.83;1.35;;;16.30;54.90;;;;;;5120429;27;45399;-72
2023/10/23 08:15:57;;;;;;;1.58;1.40;;;16.30;54.70;;;;;;5110306;27;45434;-72
2023/10/23 08:18:25;;;;;;;1.48;1.23;;;16.30;54.60;;;;;;5122090;27;46359;-73
2023/10/23 08:20:52;;;;;;;1.75;1.30;;;16.30;54.50;;;;;;5125719;27;45316;-73
2023/10/23 08:23:19;;;;;;;1.52;1.30;;;16.30;54.50;;;;;;5125716;27;45441;-72
2023/10/23 08:25:46;;;;;;;1.65;1.20;;;16.30;54.50;;;;;;5127761;27;45357;-73
2023/10/23 08:28:13;;;;;;;2.60;1.20;;;16.30;54.40;;;;;;5127015;27;46572;-73
2023/10/23 08:30:40;;;;;;;2.05;1.48;;;16.30;54.40;;;;;;5126912;27;45399;-72
2023/10/23 08:33:07;;;;;;;3.78;1.52;;;16.30;54.50;;;;;;5127665;27;45353;-73
2023/10/23 08:35:35;;;;;;;1.92;1.52;;;16.40;54.50;;;;;;5127897;27;45297;-73
2023/10/23 08:38:02;;;;;;;1.40;1.30;;;16.40;54.50;;;;;;5127753;27;45721;-73
2023/10/23 08:40:29;;;;;;;2.25;1.30;;;16.40;54.40;;;;;;5127709;27;45357;-73
2023/10/23 08:42:56;;;;;;;3.35;1.23;;;16.40;54.40;;;;;;5127691;27;45571;-73
2023/10/23 08:45:23;;;;;;;3.85;1.45;;;16.40;54.30;;;;;;5128207;27;45312;-72
2023/10/23 08:47:50;;;;;;;3.75;1.90;;;16.40;54.50;;;;;;5125128;27;46420;-73
2023/10/23 08:50:17;;;;;;;2.22;1.67;;;16.40;55.20;;;;;;5124663;27;45432;-75
2023/10/23 08:52:46;;;;;;;7.40;1.60;;;16.40;55.00;;;;;;5126820;27;45426;-73
2023/10/23 08:55:13;;;;;;;2.33;1.20;;;16.40;54.80;;;;;;5127904;27;45402;-73
2023/10/23 08:57:42;;;;;;;3.05;1.95;;;16.40;54.60;;;;;;5124519;27;45358;-74
2023/10/23 09:00:10;;;;;;;3.65;1.60;;;16.50;54.50;;;;;;5127739;27;45345;-71
2023/10/23 09:02:37;;;;;;;2.10;1.60;;;16.50;54.70;;;;;;5126981;27;45315;-71
2023/10/23 09:05:04;;;;;;;3.72;1.75;;;16.50;54.70;;;;;;5126656;27;45354;-75
2023/10/23 09:07:31;;;;;;;4.75;2.05;;;16.60;55.00;;;;;;5119179;27;45836;-80
2023/10/23 09:10:03;;;;;;;1.48;1.33;;;16.60;54.90;;;;;;5122208;27;45392;-75
2023/10/23 09:12:31;;;;;;;4.18;1.58;;;16.70;54.70;;;;;;5127385;27;45505;-76
2023/10/23 09:14:57;;;;;;;4.50;1.73;;;16.70;55.50;;;;;;5127811;27;45514;-74
2023/10/23 09:17:24;;;;;;;4.47;1.30;;;16.70;54.80;;;;;;5126670;27;46757;-74
2023/10/23 09:19:51;;;;;;;7.70;2.45;;;16.80;54.70;;;;;;5127326;27;45441;-77
2023/10/23 09:22:18;;;;;;;4.68;2.00;;;16.80;54.60;;;;;;5126815;27;45404;-77
2023/10/23 09:24:45;;;;;;;5.97;1.85;;;16.90;54.70;;;;;;5123200;27;45447;-74
2023/10/23 09:27:14;;;;;;;6.07;2.70;;;16.90;54.50;;;;;;5121267;27;46486;-81
2023/10/23 09:29:41;;;;;;;6.00;2.75;;;17.00;54.30;;;;;;5126933;27;45337;-73
2023/10/23 09:32:07;;;;;;;8.45;2.90;;;17.00;54.10;;;;;;5124589;27;45410;-72
2023/10/23 09:34:35;;;;;;;4.53;2.70;;;17.00;54.40;;;;;;5126847;27;45983;-79
2023/10/23 09:37:02;;;;;;;4.55;2.88;;;17.00;54.10;;;;;;5137563;27;48403;-78
2023/10/23 09:39:29;;;;;;;6.05;2.75;;;17.00;53.90;;;;;;5124142;27;45459;-76
2023/10/23 09:41:56;;;;;;;6.47;2.50;;;17.00;54.10;;;;;;5106993;27;45282;-75
2023/10/23 09:44:25;;;;;;;5.93;3.30;;;17.00;54.30;;;;;;5112301;27;45697;-75
2023/10/23 09:46:52;;;;;;;6.20;3.08;;;17.00;54.30;;;;;;5113363;27;45261;-74
2023/10/23 09:49:18;;;;;;;5.53;2.70;;;17.10;54.30;;;;;;5114055;27;45458;-73
2023/10/23 09:51:48;;;;;;;6.88;2.55;;;17.10;54.00;;;;;;5106587;27;45318;-75
2023/10/23 09:54:17;;;;;;;5.07;2.58;;;17.10;54.00;;;;;;5124469;27;45477;-75
2023/10/23 09:56:48;;;;;;;5.10;2.65;;;17.00;53.90;;;;;;5129790;27;47737;-76
2023/10/23 09:59:16;;;;;;;6.88;3.08;;;17.00;53.90;;;;;;5130478;27;45280;-76
2023/10/23 10:01:45;;;;;;;4.20;2.55;;;17.00;53.90;;;;;;5130198;27;45426;-74
2023/10/23 10:04:14;;;;;;;4.00;2.40;;;17.00;53.90;;;;;;5120689;27;45452;-73
2023/10/23 10:06:42;;;;;;;10.25;2.63;;;17.00;54.50;;;;;;5128259;27;45661;-75
2023/10/23 10:09:12;;;;;;;8.77;2.95;;;17.10;55.10;;;;;;5130427;27;45353;-75
2023/10/23 10:11:40;;;;;;;5.90;2.70;;;17.10;54.20;;;;;;5130020;27;45240;-75
2023/10/23 10:14:07;;;;;;;6.47;3.13;;;17.10;54.10;;;;;;5130271;27;45314;-73
2023/10/23 10:16:34;;;;;;;8.90;3.85;;;17.10;54.10;;;;;;5129950;27;45495;-72
2023/10/23 10:19:03;;;;;;;6.97;4.10;;;17.10;54.30;;;;;;5123325;27;45534;-71
2023/10/23 10:21:31;;;;;;;5.90;4.80;;;17.10;54.80;;;;;;5130454;27;45520;-76
2023/10/23 10:23:59;;;;;;;11.88;7.75;;;17.20;54.60;;;;;;5115930;27;45387;-76
2023/10/23 10:26:26;;;;;;;13.23;10.20;;;17.30;54.30;;;;;;5129892;27;46405;-76
2023/10/23 10:28:53;;;;;;;15.45;11.43;;;17.40;54.00;;;;;;5126767;27;45316;-77
2023/10/23 10:31:21;;;;;;;15.52;12.15;;;17.40;53.80;;;;;;5129671;27;45264;-74
2023/10/23 10:33:48;;;;;;;15.43;9.60;;;17.50;54.00;;;;;;5129728;27;45412;-71
2023/10/23 10:36:17;;;;;;;11.50;7.88;;;17.60;54.10;;;;;;5127076;27;46328;-67
2023/10/23 10:38:44;;;;;;;19.20;6.28;;;17.60;54.00;;;;;;5121686;27;46294;-70
2023/10/23 10:41:15;;;;;;;8.63;6.55;;;17.70;54.40;;;;;;5130118;27;45282;-75
2023/10/23 10:43:42;;;;;;;5.72;5.03;;;17.70;53.40;;;;;;5125808;27;45612;-77
2023/10/23 10:46:20;;;;;;;11.63;10.05;;;17.70;53.50;;;;;;5124712;27;45703;-74
2023/10/23 10:48:47;;;;;;;15.35;11.77;;;17.70;53.80;;;;;;5126765;27;45417;-75
2023/10/23 10:51:17;;;;;;;15.98;12.48;;;17.80;53.50;;;;;;5128287;27;45314;-74
2023/10/23 10:53:44;;;;;;;15.45;10.18;;;17.80;53.50;;;;;;5121321;27;45516;-73
2023/10/23 10:56:12;;;;;;;13.68;8.75;;;17.90;53.50;;;;;;5121167;27;45630;-74
2023/10/23 10:58:42;;;;;;;11.65;8.68;;;17.90;53.50;;;;;;5117200;27;45417;-72
2023/10/23 11:01:09;;;;;;;11.63;9.77;;;18.00;53.30;;;;;;5129137;27;45370;-75
2023/10/23 11:03:36;;;;;;;18.48;12.25;;;18.00;53.20;;;;;;5129280;27;45580;-74
2023/10/23 11:06:03;;;;;;;22.38;14.18;;;18.00;53.30;;;;;;5126335;27;47452;-72
2023/10/23 11:08:31;;;;;;;12.35;8.18;;;18.10;53.10;;;;;;5129489;27;45439;-75
2023/10/23 11:10:59;;;;;;;15.48;10.30;;;18.10;53.00;;;;;;5128704;27;45503;-75
2023/10/23 11:13:26;;;;;;;11.93;10.63;;;18.10;53.00;;;;;;5121848;27;45524;-72
2023/10/23 11:15:56;;;;;;;15.00;11.77;;;18.20;52.90;;;;;;5119242;27;45375;-74
2023/10/23 11:18:23;;;;;;;15.13;11.73;;;18.20;53.00;;;;;;5125721;27;45532;-73
2023/10/23 11:20:50;;;;;;;28.13;13.18;;;18.30;53.00;;;;;;5128582;27;45473;-71
2023/10/23 11:23:18;;;;;;;17.15;13.90;;;18.30;53.20;;;;;;5126872;27;45474;-76
2023/10/23 11:25:49;;;;;;;18.73;13.38;;;18.40;53.40;;;;;;5127985;27;47538;-74
2023/10/23 11:28:17;;;;;;;13.52;9.95;;;18.50;53.20;;;;;;5126112;27;45420;-74
2023/10/23 11:30:45;;;;;;;5.18;3.33;;;18.50;53.60;;;;;;5127852;27;45454;-75
2023/10/23 11:33:12;;;;;;;8.73;4.10;;;18.60;54.60;;;;;;5122515;27;45421;-74
2023/10/23 11:35:40;;;;;;;5.78;2.40;;;18.50;55.00;;;;;;5111867;27;46852;-72
2023/10/23 11:38:12;;;;;;;4.28;2.20;;;18.40;55.40;;;;;;5119667;27;45379;-74
2023/10/23 11:40:39;;;;;;;5.90;2.55;;;18.20;55.90;;;;;;5127998;27;45386;-74
2023/10/23 11:43:09;;;;;;;6.07;2.30;;;18.10;56.20;;;;;;5119934;27;45395;-76
2023/10/23 11:45:36;;;;;;;2.17;1.92;;;18.10;56.40;;;;;;5128874;27;46707;-74
2023/10/23 11:48:03;;;;;;;4.07;2.22;;;18.00;56.20;;;;;;5129672;27;45248;-72
2023/10/23 11:50:30;;;;;;;2.45;2.10;;;18.00;56.30;;;;;;5122208;27;45272;-72
2023/10/23 11:52:57;;;;;;;4.00;1.77;;;18.00;56.50;;;;;;5121377;27;45388;-75
2023/10/23 11:55:25;;;;;;;4.95;2.03;;;18.00;56.40;;;;;;5124259;27;46402;-76
2023/10/23 11:57:52;;;;;;;3.35;2.35;;;18.00;56.20;;;;;;5127608;27;45442;-72
2023/10/23 12:00:22;;;;;;;6.97;2.55;;;18.10;56.00;;;;;;5123563;27;44717;-73
2023/10/23 12:02:49;;;;;;;4.22;2.55;;;18.10;55.90;;;;;;5129554;27;45266;-76
2023/10/23 12:05:17;;;;;;;8.50;3.42;;;18.10;55.70;;;;;;5129147;27;46490;-77
2023/10/23 12:07:44;;;;;;;4.50;2.10;;;18.20;55.90;;;;;;5128840;27;45528;-73
2023/10/23 12:10:11;;;;;;;5.40;2.22;;;18.20;55.60;;;;;;5119677;27;45187;-72
2023/10/23 12:12:39;;;;;;;4.18;1.80;;;18.20;55.40;;;;;;5128618;27;45338;-75
2023/10/23 12:15:08;;;;;;;13.80;2.13;;;18.20;55.50;;;;;;5128233;27;46502;-72
2023/10/23 12:17:37;;;;;;;7.55;2.72;;;18.20;55.50;;;;;;5119348;27;45286;-74
2023/10/23 12:20:07;;;;;;;4.10;2.80;;;18.20;55.60;;;;;;5119171;27;45397;-75
2023/10/23 12:22:35;;;;;;;5.35;3.72;;;18.30;56.00;;;;;;5128492;27;45308;-72
2023/10/23 12:25:04;;;;;;;5.47;3.30;;;18.30;55.80;;;;;;5128345;27;46329;-76
2023/10/23 12:27:31;;;;;;;3.75;1.90;;;18.40;55.40;;;;;;5127924;27;45388;-75
2023/10/23 12:29:58;;;;;;;2.85;1.48;;;18.50;54.90;;;;;;5122759;27;45373;-75
2023/10/23 12:32:26;;;;;;;3.03;1.63;;;18.40;54.80;;;;;;5127565;27;45433;-74
2023/10/23 12:34:57;;;;;;;3.30;1.55;;;18.50;54.80;;;;;;5127914;27;46663;-74
2023/10/23 12:37:26;;;;;;;4.65;2.80;;;18.40;54.80;;;;;;5109221;27;45329;-75
2023/10/23 12:39:53;;;;;;;4.60;1.67;;;18.40;54.80;;;;;;5107608;27;45182;-72
2023/10/23 12:42:21;;;;;;;3.25;1.55;;;18.40;54.80;;;;;;5115238;27;45404;-72
2023/10/23 12:44:48;;;;;;;2.35;1.60;;;18.40;54.80;;;;;;5123013;27;47307;-74
2023/10/23 12:47:15;;;;;;;6.00;3.20;;;18.40;54.80;;;;;;5123229;27;45347;-75